Time;durP1;ratioP1;P1;durP2;ratioP2;P2;SDS_P1;SDS_P2;PMS_P1;PMS_P2;Temp;Humidity;BMP_temperature;BMP_pressure;BME280_temperature;BME280_humidity;BME280_pressure;Samples;Min_cycle;Max_cycle;Signal;HPM_P1;HPM_P2
2023/01/09 00:00:52;;;;;;;3.67;1.20;;;;;;;9.88;73.30;97650.28;4992797;28;20490;-80
2023/01/09 00:03:19;;;;;;;2.63;1.10;;;;;;;9.89;73.36;97648.47;5010087;28;20156;-78
2023/01/09 00:05:46;;;;;;;1.50;1.08;;;;;;;9.89;73.50;97643.22;5011300;28;20053;-80
2023/01/09 00:08:12;;;;;;;1.88;1.00;;;;;;;9.87;73.19;97640.72;5013544;28;20502;-80
2023/01/09 00:10:39;;;;;;;2.50;1.02;;;;;;;9.88;73.26;97647.63;5013817;28;20133;-79
2023/01/09 00:13:05;;;;;;;2.40;1.27;;;;;;;9.85;73.18;97645.31;5013721;28;20064;-78
2023/01/09 00:15:32;;;;;;;4.82;1.25;;;;;;;9.83;73.13;97641.16;5013374;28;20112;-79
2023/01/09 00:17:58;;;;;;;4.93;1.38;;;;;;;9.81;73.32;97653.59;4995825;28;20062;-79
2023/01/09 00:20:25;;;;;;;4.05;1.33;;;;;;;9.78;73.46;97644.16;5013581;28;20433;-79
2023/01/09 00:22:52;;;;;;;1.52;0.88;;;;;;;9.75;73.37;97637.41;5013569;28;20054;-80
2023/01/09 00:25:18;;;;;;;3.83;1.10;;;;;;;9.73;73.72;97641.97;5169979;22;20057;-80
2023/01/09 00:27:44;;;;;;;6.60;1.23;;;;;;;9.71;73.97;97649.13;5026929;28;20061;-79
2023/01/09 00:30:11;;;;;;;2.17;1.20;;;;;;;9.70;74.03;97652.75;5013325;28;20050;-78
2023/01/09 00:32:39;;;;;;;3.10;1.15;;;;;;;9.70;74.23;97650.09;5015578;28;20049;-79
2023/01/09 00:35:08;;;;;;;2.55;1.33;;;;;;;9.69;74.20;97648.47;5014249;28;20054;-78
2023/01/09 00:37:35;;;;;;;1.70;0.90;;;;;;;9.70;74.30;97641.38;4995771;28;20069;-79
2023/01/09 00:40:01;;;;;;;2.63;1.05;;;;;;;9.68;74.70;97641.50;5012023;28;20057;-78
2023/01/09 00:42:30;;;;;;;2.80;1.10;;;;;;;9.66;74.41;97646.09;5013216;28;20050;-79
2023/01/09 00:45:03;;;;;;;2.63;1.08;;;;;;;9.64;74.59;97645.38;4995566;28;20060;-79
2023/01/09 00:47:41;;;;;;;2.17;1.02;;;;;;;9.61;74.49;97648.28;5012727;28;20065;-78
2023/01/09 00:50:17;;;;;;;2.35;1.13;;;;;;;9.61;74.67;97651.72;5001320;28;20140;-81
2023/01/09 00:52:45;;;;;;;2.38;1.30;;;;;;;9.61;74.71;97649.09;5022588;28;20050;-83
2023/01/09 00:55:13;;;;;;;2.10;1.33;;;;;;;9.61;74.75;97650.91;5024146;28;20384;-79
2023/01/09 00:57:39;;;;;;;2.63;1.15;;;;;;;9.61;74.99;97648.28;5012645;28;20057;-81
2023/01/09 01:00:07;;;;;;;2.15;1.20;;;;;;;9.58;75.18;97643.28;5011619;28;20042;-81
2023/01/09 01:02:34;;;;;;;2.08;1.27;;;;;;;9.58;75.18;97644.13;4995138;28;20140;-82
2023/01/09 01:07:46;;;;;;;4.75;1.30;;;;;;;9.57;75.06;97646.91;5012622;28;20061;-80
2023/01/09 01:10:19;;;;;;;1.50;1.15;;;;;;;9.54;75.31;97639.28;5012480;28;20058;-79
2023/01/09 01:12:47;;;;;;;3.10;1.13;;;;;;;9.56;75.37;97642.59;5012530;28;20054;-79
2023/01/09 01:15:15;;;;;;;3.67;1.42;;;;;;;9.54;75.42;97634.88;5011999;28;20054;-79
2023/01/09 01:17:42;;;;;;;2.50;1.30;;;;;;;9.54;75.52;97642.75;5011087;28;20050;-79
2023/01/09 01:20:12;;;;;;;1.20;1.10;;;;;;;9.52;75.25;97637.63;5012553;28;20062;-80
2023/01/09 01:22:41;;;;;;;2.17;1.40;;;;;;;9.51;75.44;97641.22;5012373;28;20058;-82
2023/01/09 01:25:09;;;;;;;3.17;1.20;;;;;;;9.50;75.54;97634.28;5012322;28;20054;-80
2023/01/09 01:27:35;;;;;;;2.58;1.27;;;;;;;9.48;75.58;97633.59;5012060;28;20080;-80
2023/01/09 01:30:02;;;;;;;3.35;1.30;;;;;;;9.47;75.53;97636.34;5011912;28;20062;-82
2023/01/09 01:32:28;;;;;;;3.22;1.13;;;;;;;9.46;75.68;97626.81;5012364;28;20053;-81
2023/01/09 01:34:55;;;;;;;4.00;1.15;;;;;;;9.46;75.99;97635.50;5012110;28;20053;-81
2023/01/09 01:37:22;;;;;;;3.33;1.17;;;;;;;9.44;76.04;97632.19;5012670;28;20054;-80
2023/01/09 01:39:50;;;;;;;3.30;1.20;;;;;;;9.45;75.90;97630.38;5012205;28;20053;-80
2023/01/09 01:42:16;;;;;;;2.33;1.08;;;;;;;9.44;76.39;97626.09;5011870;28;20569;-80
2023/01/09 01:44:55;;;;;;;4.18;1.20;;;;;;;9.41;76.12;97631.66;5011861;28;20054;-80
2023/01/09 01:47:27;;;;;;;2.00;1.45;;;;;;;9.44;76.40;97647.94;5011897;28;20062;-79
2023/01/09 01:49:54;;;;;;;3.85;1.48;;;;;;;9.46;76.64;97658.34;5011726;28;20454;-80
2023/01/09 01:52:22;;;;;;;2.75;1.48;;;;;;;9.46;76.26;97664.41;5011841;28;20057;-80
2023/01/09 01:54:49;;;;;;;3.10;1.50;;;;;;;9.46;76.22;97661.78;5010364;28;20049;-80
2023/01/09 01:57:15;;;;;;;1.38;1.17;;;;;;;9.44;75.85;97670.75;5011369;28;20054;-80
2023/01/09 01:59:51;;;;;;;1.35;1.10;;;;;;;9.39;75.75;97664.09;5011840;28;20096;-81
2023/01/09 02:02:21;;;;;;;1.60;1.33;;;;;;;9.37;75.72;97659.94;4994289;28;20069;-82
2023/01/09 02:04:50;;;;;;;1.40;1.30;;;;;;;9.35;76.28;97651.38;5011556;28;20513;-81
2023/01/09 02:07:17;;;;;;;1.48;1.20;;;;;;;9.33;76.09;97653.28;5011418;28;20064;-80
2023/01/09 02:09:45;;;;;;;4.25;1.50;;;;;;;9.31;76.59;97655.22;4993989;28;20050;-81
2023/01/09 02:12:37;;;;;;;1.20;1.10;;;;;;;9.25;76.50;97653.97;5011508;28;20096;-80
2023/01/09 02:15:11;;;;;;;1.60;1.30;;;;;;;9.27;76.51;97648.56;4988308;28;20060;-81
2023/01/09 02:17:55;;;;;;;1.40;1.08;;;;;;;9.24;76.56;97647.88;4991605;28;20321;-81
2023/01/09 02:20:34;;;;;;;2.13;1.40;;;;;;;9.23;76.52;97638.34;4974631;28;20050;-80
2023/01/09 02:23:19;;;;;;;1.73;1.17;;;;;;;9.25;76.47;97639.03;4991682;28;20462;-80
2023/01/09 02:26:33;;;;;;;1.52;1.00;;;;;;;9.20;76.62;97641.22;4990356;28;20054;-80
2023/01/09 02:29:15;;;;;;;1.35;1.05;;;;;;;9.23;76.56;97638.34;4929942;28;20058;-80
2023/01/09 02:31:55;;;;;;;1.30;1.20;;;;;;;9.19;76.38;97636.13;4974246;28;20046;-81
2023/01/09 02:34:30;;;;;;;2.78;1.30;;;;;;;9.19;76.58;97636.94;4991466;28;20142;-81
2023/01/09 02:37:27;;;;;;;1.92;1.00;;;;;;;9.15;76.42;97640.78;4973952;28;20054;-81
2023/01/09 02:40:13;;;;;;;1.95;1.15;;;;;;;9.18;76.47;97635.28;4974161;28;20058;-80
2023/01/09 02:42:42;;;;;;;1.08;0.98;;;;;;;9.17;76.38;97635.41;4990970;28;20517;-81
2023/01/09 02:45:09;;;;;;;2.42;1.13;;;;;;;9.15;76.43;97642.59;4991077;28;20054;-82
2023/01/09 02:47:42;;;;;;;1.67;1.00;;;;;;;9.12;76.31;97641.03;4991516;28;20483;-81
2023/01/09 02:50:13;;;;;;;1.48;1.27;;;;;;;9.11;76.64;97640.22;4991369;28;20057;-81
2023/01/09 02:53:01;;;;;;;1.40;1.10;;;;;;;9.08;76.05;97639.66;4991353;28;20054;-80
2023/01/09 02:56:04;;;;;;;1.38;1.10;;;;;;;9.06;76.46;97638.94;4991074;28;20062;-80
2023/01/09 02:58:56;;;;;;;1.30;1.20;;;;;;;9.12;76.61;97643.66;4981077;28;20058;-81
2023/01/09 03:01:51;;;;;;;1.90;1.02;;;;;;;9.08;76.16;97639.66;4973901;28;20082;-81
2023/01/09 03:04:29;;;;;;;2.10;1.35;;;;;;;9.06;76.16;97641.56;4991314;28;20430;-81
2023/01/09 03:07:11;;;;;;;2.35;1.42;;;;;;;9.04;76.10;97639.06;4990770;28;20590;-81
2023/01/09 03:09:40;;;;;;;1.17;0.80;;;;;;;9.06;76.62;97641.56;4989887;28;20058;-80
2023/01/09 03:12:20;;;;;;;2.78;1.40;;;;;;;9.01;76.12;97643.75;4973434;28;20289;-80
2023/01/09 03:14:52;;;;;;;1.30;1.20;;;;;;;9.02;76.24;97646.25;4991101;28;20108;-81
2023/01/09 03:17:28;;;;;;;2.92;1.17;;;;;;;8.98;76.18;97643.03;4990871;28;20057;-82
2023/01/09 03:19:56;;;;;;;1.70;1.17;;;;;;;8.99;76.34;97639.47;4989860;28;20066;-80
2023/01/09 03:22:23;;;;;;;1.65;1.40;;;;;;;9.00;76.34;97640.28;4990976;28;20549;-81
2023/01/09 03:24:50;;;;;;;2.30;1.30;;;;;;;8.97;76.07;97644.00;4989289;28;20051;-81
2023/01/09 03:27:17;;;;;;;1.63;1.10;;;;;;;8.96;76.17;97642.34;4990700;28;20766;-80
2023/01/09 03:29:43;;;;;;;3.22;1.35;;;;;;;8.94;75.71;97638.19;4973649;28;20054;-81
2023/01/09 03:32:10;;;;;;;1.88;1.08;;;;;;;8.92;75.65;97646.19;4990776;28;20054;-81
2023/01/09 03:34:36;;;;;;;4.00;1.10;;;;;;;8.89;75.54;97654.31;4990698;28;20558;-80
2023/01/09 03:37:03;;;;;;;2.42;0.88;;;;;;;8.87;75.74;97648.38;4990500;28;20097;-80
2023/01/09 03:39:31;;;;;;;2.05;1.13;;;;;;;8.83;75.82;97660.09;4990894;28;20082;-81
2023/01/09 03:41:58;;;;;;;3.65;1.20;;;;;;;8.80;75.59;97671.69;4976801;28;20428;-81
2023/01/09 03:44:24;;;;;;;1.77;1.00;;;;;;;8.78;75.65;97672.78;4994596;28;20062;-83
2023/01/09 03:46:50;;;;;;;2.63;0.88;;;;;;;8.74;75.93;97669.53;4994349;28;20149;-81
2023/01/09 03:49:17;;;;;;;2.40;1.08;;;;;;;8.73;76.06;97673.97;4977202;28;20054;-81
2023/01/09 03:51:44;;;;;;;1.58;0.90;;;;;;;8.70;76.29;97682.09;4977103;28;20066;-81
2023/01/09 03:54:10;;;;;;;2.67;1.02;;;;;;;8.69;76.17;97683.06;4977299;28;20088;-81
2023/01/09 03:56:37;;;;;;;2.35;1.00;;;;;;;8.68;76.06;97685.81;4993957;28;20141;-80
2023/01/09 03:59:03;;;;;;;1.35;0.90;;;;;;;8.67;76.22;97682.34;4994443;28;20050;-80
2023/01/09 04:01:30;;;;;;;2.42;0.98;;;;;;;8.67;76.62;97700.69;4994153;28;20054;-80
2023/01/09 04:03:56;;;;;;;1.17;0.88;;;;;;;8.69;76.43;97697.94;4994057;28;20070;-80
2023/01/09 04:06:23;;;;;;;1.90;1.20;;;;;;;8.69;76.50;97698.81;4976754;28;20054;-79
2023/01/09 04:08:49;;;;;;;3.28;1.15;;;;;;;8.67;76.32;97695.44;4994140;28;20109;-82
2023/01/09 04:11:16;;;;;;;2.00;0.90;;;;;;;8.67;76.14;97705.94;4994359;28;20064;-81
2023/01/09 04:13:44;;;;;;;3.05;1.25;;;;;;;8.67;76.05;97711.19;4994175;28;20152;-80
2023/01/09 04:16:10;;;;;;;2.25;1.10;;;;;;;8.66;75.98;97717.41;4993975;28;20549;-80
2023/01/09 04:18:37;;;;;;;1.95;1.02;;;;;;;8.65;75.81;97713.13;4993711;28;20073;-80
2023/01/09 04:21:03;;;;;;;3.33;1.30;;;;;;;8.63;75.61;97720.28;4994140;28;20113;-80
2023/01/09 04:23:30;;;;;;;1.55;0.90;;;;;;;8.62;75.91;97723.84;4994069;28;20050;-80
2023/01/09 04:25:56;;;;;;;1.75;1.30;;;;;;;8.60;75.75;97723.16;4993705;28;20149;-80
2023/01/09 04:28:23;;;;;;;3.22;1.60;;;;;;;8.59;75.91;97724.09;4993731;28;20061;-81
2023/01/09 04:30:49;;;;;;;1.52;1.27;;;;;;;8.57;76.11;97728.66;4994189;28;20086;-81
2023/01/09 04:33:16;;;;;;;5.68;1.58;;;;;;;8.57;75.85;97731.28;4976345;28;20062;-81
2023/01/09 04:35:42;;;;;;;4.65;1.60;;;;;;;8.56;75.95;97737.47;4993650;28;20113;-80
2023/01/09 04:38:09;;;;;;;3.92;2.17;;;;;;;8.53;75.83;97735.09;4977345;28;20137;-81
2023/01/09 04:40:35;;;;;;;4.32;2.30;;;;;;;8.52;76.14;97736.84;4996599;28;20093;-79
2023/01/09 04:43:02;;;;;;;3.75;2.30;;;;;;;8.52;76.25;97741.28;4978696;28;20054;-80
2023/01/09 04:45:28;;;;;;;2.88;2.13;;;;;;;8.50;76.13;97746.66;4993503;28;20066;-80
2023/01/09 04:47:55;;;;;;;5.88;2.75;;;;;;;8.48;76.00;97754.63;4993359;28;20105;-80
2023/01/09 04:50:21;;;;;;;5.22;2.80;;;;;;;8.48;76.06;97751.16;4993583;28;20058;-82
2023/01/09 04:52:48;;;;;;;6.70;2.92;;;;;;;8.47;76.13;97757.38;4993471;28;20058;-81
2023/01/09 04:55:15;;;;;;;5.43;3.00;;;;;;;8.46;75.95;97763.56;4991954;28;20059;-79
2023/01/09 04:57:41;;;;;;;5.53;3.38;;;;;;;8.44;76.21;97768.94;4992258;28;20141;-80
2023/01/09 05:00:10;;;;;;;3.63;2.70;;;;;;;8.42;76.09;97755.13;4992013;28;20082;-79
2023/01/09 05:02:37;;;;;;;8.30;3.40;;;;;;;8.39;76.21;97767.63;4991821;28;20105;-80
2023/01/09 05:05:05;;;;;;;5.80;3.25;;;;;;;8.38;76.13;97753.72;4992850;28;20132;-79
2023/01/09 05:07:35;;;;;;;5.25;3.92;;;;;;;8.37;76.30;97761.69;4991878;28;20510;-80
2023/01/09 05:10:04;;;;;;;8.65;4.07;;;;;;;8.33;75.61;97763.72;4991829;28;20477;-80
2023/01/09 05:12:33;;;;;;;5.05;3.80;;;;;;;8.31;76.13;97769.09;4993043;28;20082;-79
2023/01/09 05:14:59;;;;;;;4.68;3.88;;;;;;;8.30;76.11;97766.59;4991303;28;20503;-79
2023/01/09 05:17:26;;;;;;;12.43;4.00;;;;;;;8.29;76.51;97767.53;4992802;28;20050;-80
2023/01/09 05:19:52;;;;;;;6.97;4.03;;;;;;;8.28;76.43;97761.47;4991793;28;20086;-80
2023/01/09 05:22:19;;;;;;;5.78;3.90;;;;;;;8.27;76.22;97764.22;4993174;28;20063;-80
2023/01/09 05:24:46;;;;;;;8.88;4.28;;;;;;;8.27;76.42;97782.56;4991286;28;20058;-79
2023/01/09 05:27:12;;;;;;;8.20;4.13;;;;;;;8.26;76.45;97786.16;4992545;28;20090;-80
2023/01/09 05:29:39;;;;;;;9.57;4.82;;;;;;;8.25;76.19;97784.47;4992702;28;20069;-80
2023/01/09 05:32:05;;;;;;;7.30;3.97;;;;;;;8.24;76.25;97793.28;4992696;28;20149;-81
2023/01/09 05:34:32;;;;;;;29.63;4.60;;;;;;;8.24;76.19;97804.63;4975355;28;20133;-80
2023/01/09 05:36:59;;;;;;;5.38;4.40;;;;;;;8.24;76.59;97798.53;4992228;28;20054;-79
2023/01/09 05:39:25;;;;;;;8.05;4.25;;;;;;;8.23;76.50;97796.88;4992591;28;20058;-79
2023/01/09 05:41:52;;;;;;;6.72;4.00;;;;;;;8.21;76.35;97794.38;4991474;28;20060;-79
2023/01/09 05:44:18;;;;;;;9.95;4.40;;;;;;;8.20;76.11;97793.56;4992270;28;20516;-80
2023/01/09 05:46:45;;;;;;;11.05;4.53;;;;;;;8.20;76.26;97792.69;4992352;28;20066;-80
2023/01/09 05:49:11;;;;;;;6.90;3.95;;;;;;;8.18;75.91;97792.81;4992141;28;20403;-79
2023/01/09 05:51:38;;;;;;;7.70;4.15;;;;;;;8.16;76.00;97799.13;4991241;28;20066;-80
2023/01/09 05:54:06;;;;;;;6.47;4.40;;;;;;;8.14;76.39;97801.03;4992133;28;20058;-82
2023/01/09 05:56:32;;;;;;;6.53;3.85;;;;;;;8.13;76.52;97802.84;4991708;28;20573;-83
2023/01/09 05:58:59;;;;;;;7.32;4.15;;;;;;;8.13;76.41;97792.34;4992262;28;20058;-81
2023/01/09 06:01:26;;;;;;;6.32;3.45;;;;;;;8.13;76.70;97791.50;4992100;28;20058;-81
2023/01/09 06:03:52;;;;;;;6.22;4.07;;;;;;;8.13;76.30;97805.47;4991643;28;20055;-80
2023/01/09 06:06:19;;;;;;;6.28;3.67;;;;;;;8.12;76.35;97803.81;4995057;28;20818;-79
2023/01/09 06:08:45;;;;;;;5.80;3.83;;;;;;;8.12;76.75;97803.81;5001389;28;20061;-81
2023/01/09 06:11:12;;;;;;;7.00;4.38;;;;;;;8.14;76.92;97811.50;5013991;28;20058;-82
2023/01/09 06:13:38;;;;;;;6.07;3.90;;;;;;;8.15;76.82;97816.63;5017760;28;20478;-80
2023/01/09 06:16:06;;;;;;;7.60;4.47;;;;;;;8.15;76.75;97816.63;4999760;28;20092;-79
2023/01/09 06:18:32;;;;;;;8.55;3.85;;;;;;;8.17;76.94;97814.75;5011274;28;20486;-79
2023/01/09 06:20:59;;;;;;;10.77;3.70;;;;;;;8.19;76.82;97817.25;5011364;28;20054;-79
2023/01/09 06:23:25;;;;;;;8.63;4.78;;;;;;;8.18;76.56;97811.16;4993808;28;20061;-79
2023/01/09 06:25:52;;;;;;;9.52;4.60;;;;;;;8.20;76.72;97814.50;5093975;23;20510;-81
2023/01/09 06:28:18;;;;;;;10.77;4.40;;;;;;;8.19;76.80;97807.59;5010840;28;20064;-78
2023/01/09 06:30:49;;;;;;;9.50;4.45;;;;;;;8.18;76.15;97800.69;5010822;28;20053;-78
2023/01/09 06:33:16;;;;;;;9.85;4.95;;;;;;;8.20;76.91;97811.06;4993803;28;20068;-80
2023/01/09 06:35:42;;;;;;;14.95;5.00;;;;;;;8.21;76.76;97812.72;5010898;28;20080;-79
2023/01/09 06:38:09;;;;;;;9.10;5.05;;;;;;;8.21;76.41;97804.84;5010780;28;20066;-78
2023/01/09 06:40:35;;;;;;;12.25;5.47;;;;;;;8.22;76.66;97809.13;5011053;28;20450;-80
2023/01/09 06:43:02;;;;;;;11.50;5.45;;;;;;;8.21;76.35;97808.31;5011113;28;20054;-79
2023/01/09 06:45:29;;;;;;;9.82;5.53;;;;;;;8.23;76.46;97812.59;5011127;28;20062;-79
2023/01/09 06:47:56;;;;;;;10.23;5.65;;;;;;;8.24;76.14;97816.88;4993416;28;20065;-78
2023/01/09 06:50:22;;;;;;;8.25;5.10;;;;;;;8.24;76.46;97811.63;5010933;28;20185;-80
2023/01/09 06:52:48;;;;;;;7.68;5.65;;;;;;;8.26;76.50;97817.59;5010740;28;20112;-79
2023/01/09 06:55:16;;;;;;;9.70;6.05;;;;;;;8.25;76.49;97821.16;5010811;28;20466;-79
2023/01/09 06:57:43;;;;;;;13.27;6.50;;;;;;;8.26;76.48;97834.16;5010648;28;20054;-79
2023/01/09 07:00:11;;;;;;;9.82;6.63;;;;;;;8.26;75.93;97825.47;5011025;28;20058;-79
2023/01/09 07:02:37;;;;;;;11.45;5.97;;;;;;;8.28;76.26;97821.78;5010840;28;20116;-80
2023/01/09 07:05:06;;;;;;;7.63;5.60;;;;;;;8.29;76.47;97817.34;5010673;28;20054;-79
2023/01/09 07:07:33;;;;;;;7.68;6.68;;;;;;;8.31;76.47;97818.06;5009949;28;20061;-79
2023/01/09 07:09:59;;;;;;;9.45;5.85;;;;;;;8.33;76.08;97821.38;5010571;28;20054;-81
2023/01/09 07:12:26;;;;;;;14.98;6.72;;;;;;;8.34;76.17;97825.69;5010920;28;20061;-79
2023/01/09 07:14:53;;;;;;;10.68;6.20;;;;;;;8.34;76.18;97820.44;5010156;28;20089;-79
2023/01/09 07:17:22;;;;;;;10.90;6.47;;;;;;;8.38;76.15;97826.28;5014187;28;20085;-80
2023/01/09 07:19:49;;;;;;;11.95;6.70;;;;;;;8.37;75.95;97825.44;5014686;28;20053;-80
2023/01/09 07:22:16;;;;;;;12.27;6.60;;;;;;;8.36;75.96;97831.63;5014597;28;20054;-81
2023/01/09 07:24:43;;;;;;;10.57;6.32;;;;;;;8.37;75.72;97817.56;5014684;28;20060;-79
2023/01/09 07:27:10;;;;;;;14.13;6.80;;;;;;;8.38;75.64;97826.28;5014724;28;20533;-79
2023/01/09 07:29:38;;;;;;;14.38;7.32;;;;;;;8.38;75.60;97827.13;5014573;28;20073;-80
2023/01/09 07:32:05;;;;;;;14.15;7.03;;;;;;;8.40;75.97;97838.31;5014690;28;20060;-79
2023/01/09 07:34:32;;;;;;;10.98;6.90;;;;;;;8.41;75.89;97829.47;5014359;28;20089;-79
2023/01/09 07:36:58;;;;;;;9.85;7.55;;;;;;;8.40;76.04;97834.84;5013932;28;20474;-79
2023/01/09 07:39:26;;;;;;;11.70;7.65;;;;;;;8.41;76.24;97836.53;5014464;28;20057;-78
2023/01/09 07:41:52;;;;;;;14.15;7.85;;;;;;;8.42;75.98;97838.19;5014450;28;20084;-78
2023/01/09 07:44:19;;;;;;;10.80;7.57;;;;;;;8.42;76.24;97841.66;5014156;28;20054;-78
2023/01/09 07:46:45;;;;;;;12.02;7.22;;;;;;;8.44;76.32;97846.75;5014163;28;20426;-78
2023/01/09 07:49:12;;;;;;;13.52;7.43;;;;;;;8.42;75.47;97854.78;5014160;28;20053;-79
2023/01/09 07:51:41;;;;;;;13.00;7.00;;;;;;;8.43;75.71;97855.59;5013793;28;20546;-78
2023/01/09 07:54:10;;;;;;;9.70;6.53;;;;;;;8.43;75.79;97856.44;5014247;28;20096;-79
2023/01/09 07:56:37;;;;;;;11.90;6.28;;;;;;;8.42;75.83;97852.16;5012733;28;20046;-78
2023/01/09 07:59:03;;;;;;;11.93;5.88;;;;;;;8.43;75.85;97852.97;5014071;28;20066;-78
2023/01/09 08:01:30;;;;;;;12.95;6.30;;;;;;;8.43;75.66;97852.97;4996425;28;20112;-78
2023/01/09 08:03:57;;;;;;;10.00;6.28;;;;;;;8.42;75.52;97857.38;4996516;28;20054;-79
2023/01/09 08:06:23;;;;;;;11.43;5.47;;;;;;;8.42;75.80;97861.78;5013796;28;20120;-79
2023/01/09 08:08:49;;;;;;;9.52;5.45;;;;;;;8.41;75.82;97863.56;5013802;28;20469;-78
2023/01/09 08:11:16;;;;;;;8.60;5.10;;;;;;;8.40;75.83;97853.19;5013874;28;20082;-78
2023/01/09 08:13:43;;;;;;;11.02;4.88;;;;;;;8.39;75.97;97862.88;5013770;28;20108;-79
2023/01/09 08:16:09;;;;;;;8.52;4.80;;;;;;;8.39;75.91;97859.41;5013601;28;20070;-78
2023/01/09 08:18:35;;;;;;;9.65;3.95;;;;;;;8.38;75.74;97861.22;5011970;28;20049;-78
2023/01/09 08:21:02;;;;;;;8.27;4.70;;;;;;;8.39;76.11;97860.25;5013633;28;20074;-79
2023/01/09 08:23:28;;;;;;;11.60;4.53;;;;;;;8.40;76.10;97861.91;5013564;28;20065;-79
2023/01/09 08:25:55;;;;;;;8.30;3.83;;;;;;;8.41;76.08;97857.50;5012768;28;20062;-80
2023/01/09 08:28:21;;;;;;;8.90;4.20;;;;;;;8.40;75.98;97856.66;5013405;28;20058;-79
2023/01/09 08:30:48;;;;;;;10.55;3.83;;;;;;;8.41;75.94;97860.13;5013649;28;20076;-78
2023/01/09 08:33:15;;;;;;;7.88;3.47;;;;;;;8.42;76.57;97854.78;5013476;28;20073;-79
2023/01/09 08:35:43;;;;;;;7.45;3.72;;;;;;;8.42;76.09;97859.16;5012185;28;20068;-79
2023/01/09 08:38:10;;;;;;;7.13;3.28;;;;;;;8.42;76.13;97864.41;5013172;28;20058;-78
2023/01/09 08:40:37;;;;;;;5.45;3.10;;;;;;;8.41;76.08;97855.69;4996070;28;20062;-78
2023/01/09 08:48:34;;;;;;;4.63;2.50;;;;;;;8.45;75.95;97854.50;5013169;28;20064;-79
2023/01/09 08:51:01;;;;;;;5.15;2.45;;;;;;;8.45;76.08;97857.13;5013266;28;20061;-78
2023/01/09 08:53:28;;;;;;;6.72;2.45;;;;;;;8.46;76.15;97857.97;5013127;28;20058;-79
2023/01/09 08:55:55;;;;;;;5.80;2.40;;;;;;;8.48;76.00;97854.28;5012971;28;20058;-79
2023/01/09 08:58:21;;;;;;;7.65;2.50;;;;;;;8.49;76.12;97865.59;5012507;28;20050;-78
2023/01/09 09:00:48;;;;;;;7.43;3.00;;;;;;;8.49;75.79;97868.22;5013084;28;20058;-79
2023/01/09 09:03:14;;;;;;;9.77;2.45;;;;;;;8.50;76.00;97867.25;5012866;28;20057;-79
2023/01/09 09:05:41;;;;;;;7.70;2.40;;;;;;;8.50;75.84;97867.25;5012770;28;20054;-78
2023/01/09 09:08:07;;;;;;;7.38;2.35;;;;;;;8.53;76.44;97874.94;5012732;28;20119;-80
2023/01/09 09:10:34;;;;;;;6.78;2.40;;;;;;;8.52;75.92;97867.97;5012725;28;20050;-80
2023/01/09 09:13:00;;;;;;;9.13;2.15;;;;;;;8.55;76.16;97869.53;5012411;28;20453;-79
2023/01/09 09:15:27;;;;;;;7.80;2.28;;;;;;;8.54;75.70;97868.72;5012559;28;20050;-79
2023/01/09 09:18:01;;;;;;;7.07;1.95;;;;;;;8.55;75.46;97866.91;5012065;28;20556;-79
2023/01/09 09:20:31;;;;;;;10.95;2.75;;;;;;;8.56;75.50;97865.97;5012427;28;20067;-79
2023/01/09 09:22:58;;;;;;;7.35;1.85;;;;;;;8.57;75.70;97865.00;5012342;28;20065;-78
2023/01/09 09:25:25;;;;;;;6.95;2.10;;;;;;;8.60;76.00;97864.78;5012006;28;20061;-79
2023/01/09 09:27:51;;;;;;;5.70;1.92;;;;;;;8.62;75.98;97864.63;5012396;28;20571;-80
2023/01/09 09:30:19;;;;;;;7.80;1.63;;;;;;;8.62;75.99;97860.22;5012385;28;20066;-79
2023/01/09 09:32:45;;;;;;;6.13;2.00;;;;;;;8.64;75.86;97858.34;5012125;28;20418;-79
2023/01/09 09:35:12;;;;;;;6.97;1.90;;;;;;;8.65;75.99;97854.75;5012020;28;20050;-77
2023/01/09 09:37:39;;;;;;;5.15;1.45;;;;;;;8.67;75.78;97858.06;5011196;28;20057;-78
2023/01/09 09:40:15;;;;;;;7.82;1.98;;;;;;;8.69;75.62;97871.06;5011742;28;20054;-80
2023/01/09 09:46:17;;;;;;;6.88;1.67;;;;;;;8.69;74.66;97874.53;5012082;28;20123;-80
2023/01/09 09:48:55;;;;;;;7.32;2.25;;;;;;;8.69;74.82;97874.53;5011969;28;20081;-79
2023/01/09 09:51:22;;;;;;;4.85;1.70;;;;;;;8.71;75.36;97872.63;5012122;28;20108;-79
2023/01/09 09:54:11;;;;;;;8.82;2.10;;;;;;;8.66;74.98;97868.69;5011804;28;20116;-80
2023/01/09 09:56:58;;;;;;;10.90;1.70;;;;;;;8.60;74.51;97873.47;5011543;28;20050;-79
2023/01/09 09:59:33;;;;;;;5.18;1.80;;;;;;;8.59;75.28;97871.81;5011735;28;20053;-79
2023/01/09 10:02:13;;;;;;;5.07;1.85;;;;;;;8.57;75.31;97872.88;5011446;28;20408;-80
2023/01/09 10:04:47;;;;;;;4.35;2.00;;;;;;;8.53;75.48;97869.69;5011623;28;20065;-80
2023/01/09 10:07:34;;;;;;;7.25;2.15;;;;;;;8.51;75.54;97868.06;5010423;28;20137;-78
2023/01/09 10:10:23;;;;;;;5.60;1.88;;;;;;;8.48;75.77;97872.63;4974516;28;20156;-77
2023/01/09 10:12:57;;;;;;;6.50;1.85;;;;;;;8.45;75.91;97875.47;5011488;28;20062;-78
2023/01/09 10:15:30;;;;;;;8.60;2.33;;;;;;;8.43;76.05;97863.44;4993627;28;20058;-78
2023/01/09 10:18:11;;;;;;;7.20;2.38;;;;;;;8.40;75.97;97872.38;5011578;28;20062;-77
2023/01/09 10:20:37;;;;;;;4.25;2.03;;;;;;;8.41;76.64;97876.66;5011321;28;20123;-79
2023/01/09 10:23:25;;;;;;;9.38;3.03;;;;;;;8.36;76.26;97865.72;5005951;28;20050;-77
2023/01/09 10:26:31;;;;;;;5.93;2.30;;;;;;;8.33;76.31;97868.56;5011908;28;20089;-77
2023/01/09 10:29:37;;;;;;;8.63;2.85;;;;;;;8.32;76.69;97864.28;5000455;28;20061;-77
2023/01/09 10:32:27;;;;;;;5.78;2.30;;;;;;;8.34;76.86;97857.16;5011626;28;20103;-77
2023/01/09 10:35:03;;;;;;;6.57;2.70;;;;;;;8.35;76.87;97864.06;4994364;28;20045;-77
2023/01/09 10:37:39;;;;;;;6.70;2.30;;;;;;;8.32;76.95;97862.50;5012742;28;20127;-77
2023/01/09 10:40:17;;;;;;;7.93;2.40;;;;;;;8.31;77.11;97863.47;4993853;28;20069;-76
2023/01/09 10:42:48;;;;;;;5.63;2.75;;;;;;;8.34;77.40;97863.22;5010582;28;20054;-77
2023/01/09 10:45:30;;;;;;;8.50;2.85;;;;;;;8.30;77.04;97871.47;5011038;28;20054;-77
2023/01/09 10:48:03;;;;;;;7.43;3.00;;;;;;;8.31;77.26;97868.72;5011231;28;20058;-77
2023/01/09 10:50:34;;;;;;;9.63;2.70;;;;;;;8.31;77.21;97858.22;5008329;28;20082;-76
2023/01/09 10:53:14;;;;;;;11.45;2.83;;;;;;;8.32;77.26;97872.16;5011173;28;20057;-76
2023/01/09 10:55:48;;;;;;;6.25;2.80;;;;;;;8.32;77.70;97877.41;5001892;28;20081;-76
2023/01/09 10:58:21;;;;;;;7.55;3.00;;;;;;;8.32;77.57;97874.78;4999780;28;20054;-76
2023/01/09 11:00:49;;;;;;;5.88;2.67;;;;;;;8.35;77.86;97880.59;5010741;28;20840;-76
2023/01/09 11:03:21;;;;;;;6.35;3.03;;;;;;;8.32;77.59;97874.78;4993078;28;20104;-76
2023/01/09 11:05:53;;;;;;;8.68;2.88;;;;;;;8.34;78.08;97876.31;5010825;28;20045;-76
2023/01/09 11:08:30;;;;;;;5.30;2.70;;;;;;;8.35;78.13;97879.78;4991247;28;20046;-77
2023/01/09 11:10:59;;;;;;;8.25;3.33;;;;;;;8.39;78.23;97875.97;5008485;28;20061;-77
2023/01/09 11:13:34;;;;;;;5.28;3.20;;;;;;;8.39;78.27;97880.38;5010291;28;20062;-77
2023/01/09 11:16:08;;;;;;;5.50;3.15;;;;;;;8.43;78.33;97879.19;5003134;28;20124;-76
2023/01/09 11:18:46;;;;;;;10.80;3.88;;;;;;;8.45;78.04;97874.66;4993260;28;20133;-77
2023/01/09 11:21:28;;;;;;;5.93;3.38;;;;;;;8.44;78.05;97868.56;5010751;28;20057;-77
2023/01/09 11:23:55;;;;;;;8.63;3.85;;;;;;;8.48;78.48;97870.00;4993066;28;20064;-77
2023/01/09 11:26:27;;;;;;;8.05;3.75;;;;;;;8.48;78.13;97867.38;5010324;28;20395;-76
2023/01/09 11:29:10;;;;;;;7.25;2.90;;;;;;;8.49;78.10;97881.34;5010640;28;20054;-76
2023/01/09 11:31:38;;;;;;;8.43;3.03;;;;;;;8.54;78.56;97876.59;5010380;28;20057;-77
2023/01/09 11:34:14;;;;;;;11.15;3.42;;;;;;;8.56;78.43;97871.22;5010760;28;20053;-77
2023/01/09 11:36:41;;;;;;;5.53;3.30;;;;;;;8.58;78.46;97879.78;5010331;28;20058;-76
2023/01/09 11:39:21;;;;;;;7.70;2.80;;;;;;;8.56;78.06;97873.84;5010618;28;20406;-77
2023/01/09 11:41:52;;;;;;;7.13;2.97;;;;;;;8.58;77.91;97864.91;5010459;28;20108;-76
2023/01/09 11:44:31;;;;;;;9.77;3.00;;;;;;;8.61;78.29;97869.06;5010428;28;20054;-77
2023/01/09 11:46:58;;;;;;;7.68;3.08;;;;;;;8.63;78.42;97882.88;5010534;28;20053;-77
2023/01/09 11:49:30;;;;;;;8.73;2.50;;;;;;;8.63;78.08;97867.13;5010708;28;20062;-77
2023/01/09 11:52:18;;;;;;;5.78;2.65;;;;;;;8.65;78.07;97878.34;4993021;28;20057;-77
2023/01/09 11:54:54;;;;;;;7.32;2.45;;;;;;;8.68;77.74;97885.97;5010295;28;20054;-76
2023/01/09 11:57:23;;;;;;;7.43;2.35;;;;;;;8.69;77.95;97910.41;4992451;28;20058;-75
2023/01/09 11:59:49;;;;;;;6.68;2.00;;;;;;;8.68;78.06;97888.59;5010313;28;20054;-76
2023/01/09 12:02:32;;;;;;;8.80;2.30;;;;;;;8.65;77.55;97896.72;5012243;28;20147;-76
2023/01/09 12:04:59;;;;;;;;;;;;;;;8.66;76.83;97893.13;5014210;28;20096;-77
2023/01/09 12:07:59;;;;;;;4.63;2.47;;;;;;;8.64;77.17;97897.69;5013832;28;20317;-77